createdAt,value
2022-08-09T01:08:26.737Z,15.70
2022-08-09T01:10:54.135Z,15.70
2022-08-09T01:13:22.226Z,15.60
2022-08-09T01:15:52.173Z,15.60
2022-08-09T01:18:19.635Z,15.60
2022-08-09T01:20:57.517Z,15.60
2022-08-09T01:24:02.149Z,15.60
2022-08-09T01:26:12.181Z,15.50
2022-08-09T01:28:41.234Z,15.50
2022-08-09T01:31:08.027Z,15.50
2022-08-09T01:33:37.960Z,15.50
2022-08-09T01:36:04.722Z,15.50
2022-08-09T01:38:31.526Z,15.50
2022-08-09T01:41:05.298Z,15.50
2022-08-09T01:43:42.265Z,15.40
2022-08-09T01:46:24.581Z,15.40
2022-08-09T01:48:52.143Z,15.40
2022-08-09T01:51:22.852Z,15.40
2022-08-09T01:53:50.043Z,15.40
2022-08-09T01:56:20.614Z,15.40
2022-08-09T01:58:48.939Z,15.40
2022-08-09T02:01:18.422Z,15.40
2022-08-09T02:03:45.865Z,15.30
2022-08-09T02:06:14.195Z,15.30
2022-08-09T02:08:58.386Z,15.30
2022-08-09T02:11:42.479Z,15.20
2022-08-09T02:14:10.661Z,15.20
2022-08-09T02:16:52.996Z,15.20
2022-08-09T02:19:34.845Z,15.20
2022-08-09T02:22:05.885Z,15.20
2022-08-09T02:24:35.558Z,15.10
2022-08-09T02:27:02.496Z,15.10
2022-08-09T02:29:31.370Z,15.10
2022-08-09T02:31:59.622Z,15.10
2022-08-09T02:34:41.476Z,15.10
2022-08-09T02:37:16.697Z,15.10
2022-08-09T02:39:45.270Z,15.10
2022-08-09T02:42:17.319Z,15.10
2022-08-09T02:44:44.403Z,15.10
2022-08-09T02:47:11.302Z,15.00
2022-08-09T02:49:41.323Z,15.00
2022-08-09T02:52:08.495Z,15.00
2022-08-09T02:54:35.326Z,15.00
2022-08-09T02:57:23.549Z,14.90
2022-08-09T03:00:25.326Z,14.90
2022-08-09T03:02:37.724Z,14.90
2022-08-09T03:05:16.583Z,14.80
2022-08-09T03:07:54.784Z,14.80
2022-08-09T03:10:22.274Z,14.80
2022-08-09T03:12:49.443Z,14.80
2022-08-09T03:15:20.699Z,14.80
2022-08-09T03:17:53.814Z,14.70
2022-08-09T03:20:25.051Z,14.70
2022-08-09T03:22:58.100Z,14.70
2022-08-09T03:25:56.884Z,14.70
2022-08-09T03:28:12.200Z,14.60
2022-08-09T03:30:39.185Z,14.60
2022-08-09T03:33:17.835Z,14.60
2022-08-09T03:36:14.021Z,14.50
2022-08-09T03:38:33.036Z,14.60
2022-08-09T03:41:00.008Z,14.50
2022-08-09T03:43:31.465Z,14.50
2022-08-09T03:46:04.647Z,14.40
2022-08-09T03:48:51.254Z,14.40
2022-08-09T03:51:57.589Z,14.40
2022-08-09T03:54:06.304Z,14.40
2022-08-09T03:56:37.976Z,14.40
2022-08-09T03:59:08.371Z,14.40
2022-08-09T04:01:49.961Z,14.30
2022-08-09T04:04:17.673Z,14.30
2022-08-09T04:06:58.346Z,14.30
2022-08-09T04:09:42.146Z,14.20
2022-08-09T04:12:30.440Z,14.20
2022-08-09T04:15:00.790Z,14.20
2022-08-09T04:17:29.629Z,14.30
2022-08-09T04:19:56.659Z,14.30
2022-08-09T04:22:23.673Z,14.30
2022-08-09T04:24:50.724Z,14.30
2022-08-09T04:27:17.557Z,14.40
2022-08-09T04:29:50.104Z,14.40
2022-08-09T04:32:23.492Z,14.40
2022-08-09T04:34:58.538Z,14.40
2022-08-09T04:37:45.334Z,14.50
2022-08-09T04:40:19.120Z,14.50
2022-08-09T04:42:49.746Z,14.50
2022-08-09T04:45:20.567Z,14.50
2022-08-09T04:48:01.058Z,14.60
2022-08-09T04:50:37.881Z,14.60
2022-08-09T04:53:11.485Z,14.70
2022-08-09T04:55:57.398Z,14.70
2022-08-09T04:58:25.695Z,14.80
2022-08-09T05:00:54.569Z,14.80
2022-08-09T05:03:41.285Z,14.90
2022-08-09T05:06:08.451Z,14.90
2022-08-09T05:08:35.236Z,14.90
2022-08-09T05:11:02.400Z,15.00
2022-08-09T05:13:29.440Z,15.00
2022-08-09T05:16:00.015Z,15.10
2022-08-09T05:18:39.272Z,15.10
2022-08-09T05:21:23.182Z,15.20
2022-08-09T05:23:59.614Z,15.20
2022-08-09T05:26:37.166Z,15.20
2022-08-09T05:29:22.055Z,15.30
2022-08-09T05:31:56.650Z,15.30
2022-08-09T05:34:30.036Z,15.40
2022-08-09T05:36:58.043Z,15.50
2022-08-09T05:39:28.572Z,15.50
2022-08-09T05:41:56.483Z,15.50
2022-08-09T05:44:30.659Z,15.60
2022-08-09T05:46:59.668Z,15.70
2022-08-09T05:50:23.610Z,15.80
2022-08-09T05:52:13.369Z,15.90
2022-08-09T05:54:40.096Z,16.00
2022-08-09T05:57:07.548Z,16.10
2022-08-09T05:59:39.887Z,16.20
2022-08-09T06:02:10.045Z,16.30
2022-08-09T06:04:36.963Z,16.30
2022-08-09T06:07:11.650Z,16.50
2022-08-09T06:10:01.710Z,16.50
2022-08-09T06:12:29.677Z,16.60
2022-08-09T06:15:01.067Z,16.70
2022-08-09T06:17:39.979Z,16.80
2022-08-09T06:20:07.619Z,16.90
2022-08-09T06:22:35.262Z,17.00
2022-08-09T06:25:02.301Z,17.00
2022-08-09T06:27:42.370Z,17.10
2022-08-09T06:30:10.215Z,17.10
2022-08-09T06:32:59.557Z,17.20
2022-08-09T06:35:56.498Z,17.30
2022-08-09T06:38:10.900Z,17.30
2022-08-09T06:40:38.163Z,17.10
2022-08-09T06:43:07.625Z,17.00
2022-08-09T06:46:06.861Z,17.00
2022-08-09T06:48:30.513Z,17.00
2022-08-09T06:50:58.302Z,17.00
2022-08-09T06:53:25.057Z,17.10
2022-08-09T06:55:52.331Z,17.20
2022-08-09T06:58:40.759Z,17.30
2022-08-09T07:01:06.085Z,17.40
2022-08-09T07:03:39.376Z,17.50
2022-08-09T07:06:19.661Z,17.70
2022-08-09T07:08:46.734Z,17.80
2022-08-09T07:11:17.659Z,18.00
2022-08-09T07:14:05.092Z,18.10
2022-08-09T07:16:42.255Z,18.20
2022-08-09T07:19:18.788Z,18.30
2022-08-09T07:21:57.133Z,18.50
2022-08-09T07:24:31.808Z,18.70
2022-08-09T07:26:59.726Z,18.80
2022-08-09T07:29:27.048Z,19.00
2022-08-09T07:32:04.655Z,19.10
2022-08-09T07:34:33.758Z,19.30
2022-08-09T07:37:02.475Z,19.30
2022-08-09T07:39:41.617Z,19.30
2022-08-09T07:42:09.456Z,19.30
2022-08-09T07:44:51.921Z,19.40
2022-08-09T07:47:20.808Z,19.50
2022-08-09T07:49:52.350Z,19.60
2022-08-09T07:52:32.938Z,19.70
2022-08-09T07:55:03.954Z,19.80
2022-08-09T07:57:36.787Z,19.90
2022-08-09T08:00:04.282Z,19.90
2022-08-09T08:02:31.465Z,19.90
2022-08-09T08:04:59.143Z,20.00
2022-08-09T08:08:44.321Z,20.20
2022-08-09T08:10:12.791Z,20.30
2022-08-09T08:12:43.109Z,20.40
2022-08-09T08:15:11.087Z,20.50
2022-08-09T08:17:53.234Z,20.60
2022-08-09T08:20:28.876Z,20.60
2022-08-09T08:22:58.575Z,20.70
2022-08-09T08:25:40.166Z,20.90
2022-08-09T08:28:14.385Z,21.00
2022-08-09T08:30:44.749Z,21.10
2022-08-09T08:33:22.830Z,21.20
2022-08-09T08:35:58.343Z,21.30
2022-08-09T08:38:28.011Z,21.50
2022-08-09T08:40:55.664Z,21.60
2022-08-09T08:43:23.555Z,21.70
2022-08-09T08:45:53.635Z,21.80
2022-08-09T08:48:31.345Z,21.80
2022-08-09T08:50:58.201Z,21.90
2022-08-09T08:53:32.354Z,21.90
2022-08-09T08:56:04.346Z,21.90
2022-08-09T08:58:33.175Z,22.00
2022-08-09T09:01:08.691Z,22.00
2022-08-09T09:03:46.301Z,22.00
2022-08-09T09:06:17.261Z,22.20
2022-08-09T09:08:44.326Z,22.20
2022-08-09T09:11:19.892Z,22.30
2022-08-09T09:13:56.234Z,22.30
2022-08-09T09:16:30.289Z,22.40
2022-08-09T09:19:15.705Z,22.50
2022-08-09T09:21:46.908Z,22.50
2022-08-09T09:24:21.453Z,22.60
2022-08-09T09:26:49.098Z,22.70
2022-08-09T09:29:17.348Z,22.80
2022-08-09T09:32:03.828Z,22.70
2022-08-09T09:34:33.722Z,22.80
2022-08-09T09:37:00.574Z,22.90
2022-08-09T09:39:54.744Z,23.00
2022-08-09T09:42:14.273Z,23.10
2022-08-09T09:44:41.185Z,23.20
2022-08-09T09:47:09.287Z,23.30
2022-08-09T09:50:13.865Z,23.40
2022-08-09T09:52:52.421Z,23.40
2022-08-09T09:55:24.096Z,23.60
2022-08-09T09:58:03.177Z,23.70
2022-08-09T10:00:39.273Z,23.90
2022-08-09T10:03:11.624Z,24.10
2022-08-09T10:06:00.673Z,24.30
2022-08-09T10:08:28.610Z,24.40
2022-08-09T10:10:55.711Z,24.50
2022-08-09T10:13:24.598Z,24.50
2022-08-09T10:16:56.756Z,24.40
2022-08-09T10:18:56.893Z,24.40
2022-08-09T10:21:26.925Z,24.50
2022-08-09T10:23:53.694Z,24.60
2022-08-09T10:26:20.495Z,24.70
2022-08-09T10:29:37.219Z,24.80
2022-08-09T10:32:37.532Z,24.90
2022-08-09T10:34:33.614Z,25.10
2022-08-09T10:37:02.521Z,25.20
2022-08-09T10:39:29.928Z,25.20
2022-08-09T10:42:07.204Z,25.20
2022-08-09T10:44:36.961Z,25.20
2022-08-09T10:48:12.762Z,25.30
2022-08-09T10:49:54.840Z,25.20
2022-08-09T10:52:21.693Z,25.20
2022-08-09T10:54:53.807Z,25.30
2022-08-09T10:57:20.669Z,25.40
2022-08-09T10:59:57.410Z,25.50
2022-08-09T11:03:11.058Z,25.60
2022-08-09T11:05:12.069Z,25.70
2022-08-09T11:07:57.647Z,25.70
2022-08-09T11:10:29.318Z,25.70
2022-08-09T11:12:57.798Z,25.80
2022-08-09T11:15:25.144Z,25.90
2022-08-09T11:18:02.757Z,26.00
2022-08-09T11:20:30.793Z,26.10
2022-08-09T11:23:00.177Z,26.20
2022-08-09T11:25:45.100Z,26.30
2022-08-09T11:28:27.715Z,26.30
2022-08-09T11:31:01.194Z,26.40
2022-08-09T11:33:28.412Z,26.40
2022-08-09T11:35:56.220Z,26.30
2022-08-09T11:38:32.196Z,26.20
2022-08-09T11:41:03.091Z,26.10
2022-08-09T11:43:32.534Z,26.20
2022-08-09T11:46:03.050Z,26.30
2022-08-09T11:48:30.356Z,26.40
2022-08-09T11:52:50.006Z,26.40
2022-08-09T11:53:58.623Z,26.40
2022-08-09T11:56:42.229Z,26.50
2022-08-09T11:59:14.480Z,26.60
2022-08-09T12:02:16.264Z,26.70
2022-08-09T12:04:37.636Z,26.80
2022-08-09T12:07:07.761Z,26.80
2022-08-09T12:09:36.236Z,27.00
2022-08-09T12:12:13.088Z,27.10
2022-08-09T12:15:08.026Z,27.30
2022-08-09T12:17:42.150Z,27.40
2022-08-09T12:20:10.279Z,27.50
2022-08-09T12:22:43.183Z,27.40
2022-08-09T12:25:11.127Z,27.40
2022-08-09T12:29:15.031Z,27.50
2022-08-09T12:30:36.800Z,27.60
2022-08-09T12:33:06.102Z,27.70
2022-08-09T12:35:40.146Z,27.70
2022-08-09T12:38:08.681Z,27.70
2022-08-09T12:40:35.459Z,27.90
2022-08-09T12:43:02.636Z,27.90
2022-08-09T12:45:32.202Z,28.00
2022-08-09T12:48:02.183Z,28.00
2022-08-09T12:50:30.699Z,27.70
2022-08-09T12:53:09.667Z,27.70
2022-08-09T12:56:15.113Z,27.90
2022-08-09T12:58:33.239Z,28.10
2022-08-09T13:01:04.742Z,28.20
2022-08-09T13:03:53.257Z,28.30
2022-08-09T13:06:21.670Z,28.40
2022-08-09T13:08:49.243Z,28.40
2022-08-09T13:11:24.293Z,28.40
2022-08-09T13:14:42.609Z,28.50
2022-08-09T13:16:40.566Z,28.60
2022-08-09T13:19:12.696Z,28.50
2022-08-09T13:22:38.124Z,28.60
2022-08-09T13:24:48.389Z,28.50
2022-08-09T13:27:13.698Z,28.50
2022-08-09T13:30:03.297Z,28.50
2022-08-09T13:32:29.186Z,28.50
2022-08-09T13:34:56.103Z,28.60
2022-08-09T13:37:51.002Z,28.60
2022-08-09T13:41:56.661Z,28.70
2022-08-09T13:42:56.741Z,28.70
2022-08-09T13:45:31.859Z,28.70
2022-08-09T13:47:59.434Z,28.70
2022-08-09T13:50:31.147Z,28.70
2022-08-09T13:52:58.598Z,28.70
2022-08-09T13:55:29.100Z,28.70
2022-08-09T13:57:59.473Z,28.70
2022-08-09T14:00:28.628Z,28.80
2022-08-09T14:03:03.221Z,28.80
2022-08-09T14:05:58.142Z,28.90
2022-08-09T14:08:28.650Z,28.90
2022-08-09T14:10:56.805Z,28.80
2022-08-09T14:14:15.096Z,28.80
2022-08-09T14:16:14.274Z,28.70
2022-08-09T14:18:45.269Z,28.70
2022-08-09T14:21:17.895Z,28.60
2022-08-09T14:23:53.868Z,28.60
2022-08-09T14:26:25.424Z,28.70
2022-08-09T14:28:57.068Z,28.70
2022-08-09T14:31:36.434Z,28.80
2022-08-09T14:34:11.298Z,28.70
2022-08-09T14:36:42.643Z,28.70
2022-08-09T14:39:12.581Z,28.70
2022-08-09T14:41:40.459Z,28.70
2022-08-09T14:44:11.115Z,28.70
2022-08-09T14:46:56.647Z,28.60
2022-08-09T14:49:25.643Z,28.50
2022-08-09T14:51:58.343Z,28.50
2022-08-09T14:54:27.537Z,28.60
2022-08-09T14:56:59.037Z,28.70
2022-08-09T14:59:27.132Z,28.70
2022-08-09T15:01:54.243Z,28.70
2022-08-09T15:04:23.227Z,28.70
2022-08-09T15:06:51.444Z,28.70
2022-08-09T15:10:03.336Z,28.70
2022-08-09T15:12:05.336Z,28.70
2022-08-09T15:14:35.100Z,28.80
2022-08-09T15:17:08.920Z,28.90
2022-08-09T15:19:36.495Z,29.00
2022-08-09T15:22:03.588Z,28.80
2022-08-09T15:24:30.508Z,28.70
2022-08-09T15:26:57.818Z,28.70
2022-08-09T15:30:58.280Z,28.60
2022-08-09T15:32:28.378Z,28.60
2022-08-09T15:34:56.373Z,28.60
2022-08-09T15:37:37.085Z,28.70
2022-08-09T15:40:04.442Z,28.70
2022-08-09T15:42:38.729Z,28.80
2022-08-09T15:45:06.137Z,28.70
2022-08-09T15:47:51.600Z,28.60
2022-08-09T15:50:23.581Z,28.60
2022-08-09T15:53:06.503Z,28.60
2022-08-09T15:55:34.462Z,28.60
2022-08-09T15:58:26.387Z,28.60
2022-08-09T16:00:53.820Z,28.70
2022-08-09T16:03:29.635Z,28.70
2022-08-09T16:06:05.380Z,28.70
2022-08-09T16:08:32.112Z,28.70
2022-08-09T16:10:58.866Z,28.80
2022-08-09T16:14:02.896Z,28.80
2022-08-09T16:16:18.403Z,28.70
2022-08-09T16:18:45.781Z,28.90
2022-08-09T16:21:12.588Z,28.90
2022-08-09T16:23:50.772Z,28.90
2022-08-09T16:26:35.125Z,28.90
2022-08-09T16:29:10.682Z,29.10
2022-08-09T16:32:18.418Z,29.30
2022-08-09T16:34:25.778Z,29.60
2022-08-09T16:36:52.999Z,29.60
2022-08-09T16:39:20.489Z,29.60
2022-08-09T16:42:02.569Z,29.50
2022-08-09T16:44:31.837Z,29.50
2022-08-09T16:47:03.956Z,29.50
2022-08-09T16:50:31.779Z,29.50
2022-08-09T16:52:32.859Z,29.50
2022-08-09T16:54:59.802Z,29.60
2022-08-09T16:57:26.651Z,29.70
2022-08-09T17:00:14.768Z,29.60
2022-08-09T17:02:42.746Z,29.50
2022-08-09T17:05:14.117Z,29.50
2022-08-09T17:08:46.353Z,29.40
2022-08-09T17:10:33.480Z,29.40
2022-08-09T17:13:01.425Z,29.40
2022-08-09T17:15:58.623Z,29.50
2022-08-09T17:18:15.321Z,29.60
2022-08-09T17:20:49.077Z,29.60
2022-08-09T17:23:20.331Z,29.60
2022-08-09T17:25:53.185Z,29.60
2022-08-09T17:28:20.206Z,29.60
2022-08-09T17:30:47.819Z,29.60
2022-08-09T17:33:22.646Z,29.60
2022-08-09T17:35:50.080Z,29.50
2022-08-09T17:38:32.015Z,29.50
2022-08-09T17:41:02.784Z,29.40
2022-08-09T17:43:34.753Z,29.20
2022-08-09T17:46:07.071Z,29.20
2022-08-09T17:48:34.310Z,29.10
2022-08-09T17:51:09.603Z,29.00
2022-08-09T17:53:52.259Z,28.60
2022-08-09T17:56:20.509Z,28.10
2022-08-09T17:58:47.555Z,27.70
2022-08-09T18:01:22.572Z,27.20
2022-08-09T18:03:50.371Z,26.80
2022-08-09T18:06:31.040Z,26.40
2022-08-09T18:08:59.416Z,26.20
2022-08-09T18:11:26.249Z,25.80
2022-08-09T18:14:00.614Z,25.60
2022-08-09T18:16:32.617Z,25.50
2022-08-09T18:19:04.177Z,25.30
2022-08-09T18:21:46.180Z,25.20
2022-08-09T18:24:17.046Z,25.10
2022-08-09T18:26:46.789Z,25.00
2022-08-09T18:30:42.123Z,24.90
2022-08-09T18:32:03.011Z,24.80
2022-08-09T18:34:31.856Z,24.60
2022-08-09T18:36:58.773Z,24.50
2022-08-09T18:39:32.253Z,24.40
2022-08-09T18:42:01.139Z,24.30
2022-08-09T18:44:28.264Z,24.20
2022-08-09T18:47:08.012Z,24.10
2022-08-09T18:49:43.227Z,24.00
2022-08-09T18:52:13.363Z,23.90
2022-08-09T18:54:49.575Z,23.80
2022-08-09T18:57:19.960Z,23.70
2022-08-09T18:59:54.501Z,23.60
2022-08-09T19:02:31.706Z,23.50
2022-08-09T19:05:15.312Z,23.50
2022-08-09T19:08:04.920Z,23.40
2022-08-09T19:10:37.567Z,23.30
2022-08-09T19:13:23.552Z,23.20
2022-08-09T19:15:56.367Z,23.10
2022-08-09T19:18:33.351Z,23.00
2022-08-09T19:21:03.566Z,22.90
2022-08-09T19:24:31.574Z,22.80
2022-08-09T19:26:19.382Z,22.70
2022-08-09T19:28:57.285Z,22.70
2022-08-09T19:31:30.473Z,22.60
2022-08-09T19:34:21.798Z,22.50
2022-08-09T19:36:51.145Z,22.40
2022-08-09T19:39:20.530Z,22.30
2022-08-09T19:41:55.656Z,22.20
2022-08-09T19:44:23.169Z,22.10
2022-08-09T19:46:53.623Z,22.10
2022-08-09T19:50:10.380Z,22.00
2022-08-09T19:52:07.950Z,21.90
2022-08-09T19:54:35.171Z,21.90
2022-08-09T19:57:02.332Z,21.90
2022-08-09T19:59:39.746Z,21.80
2022-08-09T20:04:10.033Z,21.80
2022-08-09T20:05:10.383Z,21.70
2022-08-09T20:07:58.718Z,21.70
2022-08-09T20:10:34.092Z,21.70
2022-08-09T20:13:04.896Z,21.60
2022-08-09T20:16:37.772Z,21.50
2022-08-09T20:18:19.725Z,21.40
2022-08-09T20:20:46.672Z,21.40
2022-08-09T20:23:13.416Z,21.30
2022-08-09T20:25:51.382Z,21.20
2022-08-09T20:28:27.798Z,21.10
2022-08-09T20:31:02.909Z,21.10
2022-08-09T20:33:41.070Z,21.00
2022-08-09T20:36:11.128Z,20.90
2022-08-09T20:38:57.407Z,20.90
2022-08-09T20:41:35.589Z,20.90
2022-08-09T20:44:04.474Z,20.90
2022-08-09T20:46:42.908Z,20.90
2022-08-09T20:49:11.692Z,21.00
2022-08-09T20:51:41.446Z,21.00
2022-08-09T20:54:12.409Z,21.00
2022-08-09T20:56:41.010Z,21.00
2022-08-09T20:59:08.200Z,21.10
2022-08-09T21:01:50.558Z,21.10
2022-08-09T21:05:54.870Z,21.10
2022-08-09T21:07:11.483Z,21.00
2022-08-09T21:09:41.882Z,21.10
2022-08-09T21:14:42.021Z,21.00
2022-08-09T21:18:23.027Z,21.00
2022-08-09T21:20:16.088Z,21.00
2022-08-09T21:22:46.955Z,21.00
2022-08-09T21:25:38.470Z,21.00
2022-08-09T21:28:05.532Z,21.00
2022-08-09T21:30:34.537Z,20.90
2022-08-09T21:33:07.698Z,20.90
2022-08-09T21:35:40.574Z,20.90
2022-08-09T21:38:17.551Z,20.90
2022-08-09T21:40:50.454Z,20.80
2022-08-09T21:43:21.753Z,20.80
2022-08-09T21:46:04.694Z,20.80
2022-08-09T21:48:31.870Z,20.80
2022-08-09T21:50:58.970Z,20.70
2022-08-09T21:53:40.221Z,20.70
2022-08-09T21:56:28.335Z,20.70
2022-08-09T21:58:55.518Z,20.60
2022-08-09T22:01:26.468Z,20.50
2022-08-09T22:04:09.693Z,20.50
2022-08-09T22:06:36.868Z,20.50
2022-08-09T22:09:03.609Z,20.40
2022-08-09T22:12:09.244Z,20.50
2022-08-09T22:14:17.123Z,20.40
2022-08-09T22:16:43.858Z,20.40
2022-08-09T22:19:57.903Z,20.40
2022-08-09T22:21:58.011Z,20.40
2022-08-09T22:24:25.138Z,20.30
2022-08-09T22:26:52.218Z,20.30
2022-08-09T22:29:19.409Z,20.20
2022-08-09T22:31:56.807Z,20.20
2022-08-09T22:34:25.703Z,20.10
2022-08-09T22:36:52.884Z,20.00
2022-08-09T22:39:47.298Z,19.90
2022-08-09T22:42:20.589Z,19.80
2022-08-09T22:44:49.343Z,19.70
2022-08-09T22:48:11.845Z,19.60
2022-08-09T22:50:14.222Z,19.50
2022-08-09T22:52:41.053Z,19.40
